الصفحة الرئيسية
METAR-TAF:

METAR-TAF

مطار :

مطار إنديانابوليس الدولي

إنديانابوليس, إنديانا, الولايات المتحدة

دائرة عرض: 39-43-30N, خط طول: 086-16-55W, ارتفاع: 243 متر

مراقبة الطقس الحالي

تاريخ ووقت الإصدار 53 دقيقة قبل الساعة 04:54UTC
ريح 6 عقدة من الشمال
درجة الحرارة 4°درجة مئوية
الرطوبة 75%
ضغط 1032 hPa
الرؤية: 16.1 كم
سماء صافية

METAR: KIND 180454Z 01006KT 10SM CLR 04/00 A3047 RMK AO2 SLP320 T00440000 401330033

زمن: 01:47 (05:47 UTC)

توقعات

تاريخ ووقت الإصدار 27 دقيقة قبل الساعة 05:20UTC
التوقعات صالحة من18 الساعة 06 UTC إلى 19 الساعة 12 UTC
ريح 3 عقدةمن اتجاهات متغيرة
الرؤية: 10 كم
غيوم متفرقة على ارتفاع 25000 قدم
من 18 الساعة 1400 UTC
ريح عقدة من الشمال
الرؤية: 10 كم
سماء صافية
من 19 الساعة 1000 UTC
ريح 3 عقدةمن اتجاهات متغيرة
الرؤية: 10 كم
غيوم قليلة على ارتفاع 25000 قدم

TAF: KIND 180520Z 1806/1912 VRB03KT P6SM SCT250 FM181400 00000KT P6SM SKC FM191000 VRB03KT P6SM FEW250

أرصاد الطقس والتوقعات من أكثر من 4000 مطار (تقارير الطقس للمطار METAR والتنبؤ بالطقس بالمطارTAF).

المحطات المتاحة هي النقط الصفراء والحمراء على الخريطة.

حرك المؤشر فوق النقطة لمعرفة اسم المحطة.

ثم انقر لمعرفة أرصاد وتوقعات الطقس.

لتغيير الخارطة: اضغط على الأزرار الخضراء مع رمز الصليب الأسود للتكبير. على الزر الأخضر مع شرطة للتصغير، أو على الأسهم الخضراء للخرائط المجاورة.


METAR-TAF: